Time;durP1;ratioP1;P1;durP2;ratioP2;P2;SDS_P1;SDS_P2;PMS_P1;PMS_P2;Temp;Humidity;BMP_temperature;BMP_pressure;BME280_temperature;BME280_humidity;BME280_pressure;Samples;Min_cycle;Max_cycle;Signal;HPM_P1;HPM_P2
2020/12/22 00:00:21;;;;;;;3.83;3.50;;;;;;;7.82;100.00;95840.31;5069235;28;20750;-75
2020/12/22 00:02:48;;;;;;;3.63;3.33;;;;;;;7.81;100.00;95841.28;5068674;28;20211;-75
2020/12/22 00:05:15;;;;;;;3.30;3.00;;;;;;;7.83;100.00;95836.00;5069183;28;20201;-74
2020/12/22 00:07:42;;;;;;;3.87;3.40;;;;;;;7.88;100.00;95829.47;5069482;28;20196;-78
2020/12/22 00:10:09;;;;;;;3.73;3.30;;;;;;;7.85;100.00;95829.75;5069638;28;20208;-76
2020/12/22 00:12:38;;;;;;;3.53;3.27;;;;;;;7.89;100.00;95827.69;5069223;28;20209;-77
2020/12/22 00:15:05;;;;;;;3.70;3.40;;;;;;;7.88;100.00;95826.91;5048738;28;20194;-76
2020/12/22 00:17:31;;;;;;;3.20;2.87;;;;;;;7.83;100.00;95829.13;5065627;28;20312;-78
2020/12/22 00:19:57;;;;;;;4.57;3.40;;;;;;;7.88;100.00;95828.66;5069761;28;20204;-77
2020/12/22 00:22:23;;;;;;;3.80;3.50;;;;;;;7.91;100.00;95824.00;5069102;28;20201;-77
2020/12/22 00:24:49;;;;;;;4.07;3.47;;;;;;;7.92;100.00;95827.38;5068499;28;20288;-79
2020/12/22 00:27:15;;;;;;;3.97;3.03;;;;;;;7.92;100.00;95832.50;5069608;28;20212;-79
2020/12/22 00:29:41;;;;;;;4.07;2.80;;;;;;;7.93;100.00;95824.66;5069240;28;20236;-78
2020/12/22 00:32:08;;;;;;;3.77;3.23;;;;;;;7.84;100.00;95832.47;5069162;28;20205;-78
2020/12/22 00:34:34;;;;;;;3.27;2.97;;;;;;;7.85;100.00;95834.91;5068702;28;20200;-75
2020/12/22 00:37:00;;;;;;;3.30;3.00;;;;;;;7.85;100.00;95827.19;5068566;28;20220;-77
2020/12/22 00:39:26;;;;;;;3.00;2.70;;;;;;;7.88;100.00;95826.91;5068960;28;20208;-77
2020/12/22 00:41:52;;;;;;;2.87;2.60;;;;;;;7.93;100.00;95828.97;5069402;28;20201;-77
2020/12/22 00:44:21;;;;;;;4.67;2.90;;;;;;;7.95;100.00;95838.13;5068644;28;20227;-75
2020/12/22 00:46:47;;;;;;;3.23;2.93;;;;;;;7.95;100.00;95833.00;5068917;28;20358;-77
2020/12/22 00:49:14;;;;;;;2.97;2.67;;;;;;;7.96;100.00;95836.38;5069243;28;20205;-76
2020/12/22 00:51:40;;;;;;;3.13;2.83;;;;;;;8.01;100.00;95833.34;5068412;28;20199;-77
2020/12/22 00:54:06;;;;;;;2.40;2.20;;;;;;;8.04;100.00;95840.75;5068495;28;20197;-78
2020/12/22 00:56:32;;;;;;;3.00;2.70;;;;;;;7.96;100.00;95832.03;5068487;28;20212;-74
2020/12/22 00:58:58;;;;;;;2.77;2.40;;;;;;;8.00;100.00;95836.88;5069043;28;20201;-78
2020/12/22 01:01:24;;;;;;;3.30;2.50;;;;;;;8.02;100.00;95837.53;5068589;28;20709;-75
2020/12/22 01:03:50;;;;;;;2.57;2.37;;;;;;;8.05;100.00;95845.72;5067670;28;20197;-74
2020/12/22 01:06:17;;;;;;;3.10;2.23;;;;;;;8.08;100.00;95850.50;5068371;28;20763;-74
2020/12/22 01:08:43;;;;;;;2.70;2.50;;;;;;;8.07;100.00;95848.94;5067965;28;20675;-77
2020/12/22 01:11:09;;;;;;;2.50;2.30;;;;;;;8.08;100.00;95850.50;5068965;28;20201;-77
2020/12/22 01:13:35;;;;;;;2.23;2.03;;;;;;;8.11;100.00;95844.28;5068240;28;20229;-78
2020/12/22 01:16:01;;;;;;;3.93;2.53;;;;;;;8.10;100.00;95847.78;5068185;28;20240;-77
2020/12/22 01:18:27;;;;;;;2.43;2.23;;;;;;;8.07;100.00;95851.50;5067957;28;20197;-77
2020/12/22 01:20:53;;;;;;;3.70;2.77;;;;;;;8.11;100.00;95852.78;5068036;28;20200;-77
2020/12/22 01:23:20;;;;;;;3.03;2.57;;;;;;;8.14;100.00;95849.09;5068386;28;20196;-78
2020/12/22 01:25:46;;;;;;;2.60;2.40;;;;;;;8.13;100.00;95844.94;5068386;28;20221;-75
2020/12/22 01:28:12;;;;;;;2.73;2.53;;;;;;;8.16;100.00;95840.28;5067138;28;20199;-77
2020/12/22 01:30:38;;;;;;;3.53;2.60;;;;;;;8.13;100.00;95847.50;5068569;28;20197;-77
2020/12/22 01:33:04;;;;;;;2.97;2.70;;;;;;;8.15;100.00;95845.56;5067912;28;20728;-74
2020/12/22 01:35:30;;;;;;;3.10;2.80;;;;;;;8.18;100.00;95846.06;5067747;28;20221;-73
2020/12/22 01:37:56;;;;;;;3.17;2.87;;;;;;;8.18;100.00;95837.56;5068140;28;20641;-77
2020/12/22 01:40:23;;;;;;;4.10;3.00;;;;;;;8.23;100.00;95836.16;5068630;28;20208;-76
2020/12/22 01:42:52;;;;;;;3.20;2.90;;;;;;;8.26;100.00;95835.06;5068150;28;20228;-79
2020/12/22 01:45:18;;;;;;;3.10;2.90;;;;;;;8.28;100.00;95833.09;5068146;28;20223;-77
2020/12/22 01:47:49;;;;;;;5.53;3.07;;;;;;;8.30;100.00;95828.63;5067934;28;20628;-77
2020/12/22 01:50:16;;;;;;;3.37;3.00;;;;;;;8.37;100.00;95828.84;5068060;28;20202;-74
2020/12/22 01:52:43;;;;;;;2.77;2.57;;;;;;;8.35;100.00;95817.94;5067831;28;20211;-78
2020/12/22 01:55:09;;;;;;;3.43;3.03;;;;;;;8.36;100.00;95820.34;5067516;28;20208;-77
2020/12/22 01:57:36;;;;;;;2.87;2.50;;;;;;;8.38;100.00;95821.00;5067487;28;20221;-77
2020/12/22 02:00:03;;;;;;;3.43;3.13;;;;;;;8.38;100.00;95828.69;5068190;28;20746;-78
2020/12/22 02:02:29;;;;;;;3.17;2.87;;;;;;;8.44;100.00;95828.06;5067412;28;20200;-76
2020/12/22 02:04:55;;;;;;;3.40;3.10;;;;;;;8.47;100.00;95811.53;5068103;28;20749;-76
2020/12/22 02:07:21;;;;;;;5.47;3.17;;;;;;;8.49;100.00;95799.34;5067653;28;20213;-77
2020/12/22 02:09:49;;;;;;;3.63;3.10;;;;;;;8.50;100.00;95796.63;5067625;28;20197;-76
2020/12/22 02:12:16;;;;;;;3.10;2.80;;;;;;;8.56;100.00;95790.06;5067688;28;20193;-77
2020/12/22 02:14:46;;;;;;;3.53;3.00;;;;;;;8.57;100.00;95779.66;5067794;28;20254;-77
2020/12/22 02:17:13;;;;;;;3.03;2.73;;;;;;;8.62;100.00;95772.28;5066885;28;20683;-77
2020/12/22 02:19:39;;;;;;;2.80;2.60;;;;;;;8.61;100.00;95759.59;5067761;28;20600;-77
2020/12/22 02:22:06;;;;;;;3.20;2.67;;;;;;;8.60;100.00;95781.09;5067719;28;20192;-77
2020/12/22 02:24:32;;;;;;;3.93;2.70;;;;;;;8.61;100.00;95788.66;5067374;28;20201;-77
2020/12/22 02:26:59;;;;;;;2.93;2.63;;;;;;;8.65;100.00;95763.47;5067948;28;20299;-78
2020/12/22 02:29:25;;;;;;;2.70;2.50;;;;;;;8.63;100.00;95776.47;5068014;28;20213;-77
2020/12/22 02:31:51;;;;;;;2.90;2.60;;;;;;;8.68;100.00;95781.09;5067792;28;20788;-77
2020/12/22 02:34:17;;;;;;;2.90;2.60;;;;;;;8.71;100.00;95778.22;5067765;28;20200;-74
2020/12/22 02:36:42;;;;;;;2.40;2.20;;;;;;;8.76;100.00;95780.31;5067111;28;20778;-75
2020/12/22 02:39:09;;;;;;;4.47;2.40;;;;;;;8.75;100.00;95776.94;5069381;28;20613;-78
2020/12/22 02:41:35;;;;;;;2.67;2.43;;;;;;;8.71;100.00;95778.22;5071289;28;20230;-72
2020/12/22 02:44:01;;;;;;;2.80;2.60;;;;;;;8.73;100.00;95776.28;5070915;28;20200;-78
2020/12/22 02:46:27;;;;;;;2.67;2.47;;;;;;;8.77;100.00;95776.78;5071378;28;20221;-78
2020/12/22 02:48:53;;;;;;;3.00;2.50;;;;;;;8.78;100.00;95786.09;5071197;28;20705;-74
2020/12/22 02:51:22;;;;;;;2.80;2.60;;;;;;;8.82;100.00;95774.53;5071200;28;20200;-77
2020/12/22 02:53:47;;;;;;;2.60;2.40;;;;;;;8.85;100.00;95774.22;5070532;28;20193;-78
2020/12/22 02:56:14;;;;;;;2.80;2.60;;;;;;;8.85;100.00;95769.09;5070817;28;20224;-77
2020/12/22 02:58:40;;;;;;;2.50;2.30;;;;;;;8.83;100.00;95769.25;5070832;28;20201;-78
2020/12/22 03:01:06;;;;;;;4.03;2.47;;;;;;;8.83;100.00;95758.97;5070904;28;20251;-78
2020/12/22 03:03:32;;;;;;;2.77;1.90;;;;;;;8.85;100.00;95766.53;5071033;28;20253;-77
2020/12/22 03:05:58;;;;;;;2.10;2.00;;;;;;;8.85;100.00;95754.44;5070200;28;20555;-75
2020/12/22 03:08:24;;;;;;;2.30;2.10;;;;;;;8.89;100.00;95752.38;5070902;28;20267;-77
2020/12/22 03:10:52;;;;;;;4.10;2.03;;;;;;;8.91;100.00;95755.59;5070928;28;20237;-77
2020/12/22 03:13:19;;;;;;;2.40;2.20;;;;;;;8.91;100.00;95753.00;5070229;28;20193;-74
2020/12/22 03:15:45;;;;;;;2.10;1.90;;;;;;;8.91;100.00;95751.25;5070762;28;20252;-76
2020/12/22 03:18:12;;;;;;;2.10;1.90;;;;;;;8.88;100.00;95751.56;5070623;28;20773;-77
2020/12/22 03:20:38;;;;;;;2.50;2.30;;;;;;;8.90;100.00;95759.91;5070768;28;20283;-77
2020/12/22 03:23:04;;;;;;;2.97;2.10;;;;;;;8.91;100.00;95776.94;5070550;28;20193;-77
2020/12/22 03:25:31;;;;;;;2.23;1.90;;;;;;;8.91;100.00;95778.69;5070248;28;20220;-78
2020/12/22 03:27:56;;;;;;;2.17;2.00;;;;;;;8.88;100.00;95789.28;5070116;28;20782;-74
2020/12/22 03:30:23;;;;;;;2.63;2.00;;;;;;;8.85;100.00;95792.19;5070878;28;20208;-77
2020/12/22 03:32:49;;;;;;;2.43;1.70;;;;;;;8.84;100.00;95786.25;5070294;28;20208;-77
2020/12/22 03:35:15;;;;;;;1.97;1.77;;;;;;;8.83;100.00;95779.50;5069730;28;20631;-78
2020/12/22 03:37:41;;;;;;;1.97;1.60;;;;;;;8.86;100.00;95781.72;5070347;28;20221;-77
2020/12/22 03:40:08;;;;;;;1.40;1.30;;;;;;;8.91;100.00;95776.13;5070582;28;20201;-74
2020/12/22 03:42:35;;;;;;;1.77;1.40;;;;;;;8.95;100.00;95785.13;5070240;28;20193;-77
2020/12/22 03:45:01;;;;;;;1.10;1.03;;;;;;;9.04;100.00;95785.94;5070253;28;20211;-76
2020/12/22 03:47:28;;;;;;;1.53;1.00;;;;;;;9.10;100.00;95783.50;5069757;28;20197;-74
2020/12/22 03:49:56;;;;;;;1.27;1.17;;;;;;;9.16;100.00;95788.00;5069129;28;20250;-77
2020/12/22 03:52:22;;;;;;;1.77;1.03;;;;;;;9.21;100.00;95777.22;5070022;28;20283;-75
2020/12/22 03:54:48;;;;;;;1.00;1.00;;;;;;;9.27;100.00;95782.50;5069270;28;20228;-78
2020/12/22 03:57:15;;;;;;;3.97;1.10;;;;;;;9.30;100.00;95784.75;5069653;28;20221;-78
2020/12/22 03:59:41;;;;;;;1.13;1.10;;;;;;;9.32;100.00;95780.25;5069518;28;20222;-77
2020/12/22 04:02:08;;;;;;;1.13;1.03;;;;;;;9.34;100.00;95768.03;5070117;28;20668;-78
2020/12/22 04:04:35;;;;;;;1.10;1.00;;;;;;;9.32;100.00;95764.84;5069796;28;20201;-74
2020/12/22 04:07:01;;;;;;;1.07;0.97;;;;;;;9.39;100.00;95770.13;5069553;28;20247;-77
2020/12/22 04:09:26;;;;;;;1.20;1.10;;;;;;;9.47;100.00;95772.66;5069188;28;20204;-77
2020/12/22 04:11:52;;;;;;;1.23;1.00;;;;;;;9.53;100.00;95773.78;5069429;28;20200;-74
2020/12/22 04:14:19;;;;;;;1.13;1.03;;;;;;;9.57;100.00;95769.91;5069582;28;20223;-78
2020/12/22 04:16:46;;;;;;;1.13;1.03;;;;;;;9.60;100.00;95769.59;5069565;28;20597;-77
2020/12/22 04:19:12;;;;;;;1.20;1.10;;;;;;;9.60;100.00;95774.72;5069070;28;20193;-74
2020/12/22 04:21:39;;;;;;;0.90;0.90;;;;;;;9.64;100.00;95775.97;5069822;28;20209;-73
2020/12/22 04:24:05;;;;;;;1.43;1.20;;;;;;;9.63;100.00;95764.91;5068781;28;20201;-77
2020/12/22 04:26:34;;;;;;;2.50;1.30;;;;;;;9.69;100.00;95786.59;5069438;28;20232;-75
2020/12/22 04:29:00;;;;;;;1.20;1.10;;;;;;;9.74;100.00;95778.38;5068770;28;20208;-75
2020/12/22 04:31:26;;;;;;;0.90;0.90;;;;;;;9.74;100.00;95778.38;5069566;28;20200;-77
2020/12/22 04:33:54;;;;;;;1.57;1.10;;;;;;;9.78;100.00;95774.50;5068718;28;20189;-78
2020/12/22 04:36:21;;;;;;;1.10;1.10;;;;;;;9.85;100.00;95789.09;5069026;28;20228;-76
2020/12/22 04:38:49;;;;;;;1.30;1.20;;;;;;;9.89;100.00;95792.13;5068526;28;20193;-78
2020/12/22 04:41:18;;;;;;;0.90;0.90;;;;;;;9.92;100.00;95787.47;5069680;28;20204;-79
2020/12/22 04:43:45;;;;;;;0.80;0.80;;;;;;;9.92;100.00;95782.31;5068958;28;20230;-74
2020/12/22 04:46:11;;;;;;;1.00;1.00;;;;;;;10.00;100.00;95789.22;5068585;28;20227;-75
2020/12/22 04:48:39;;;;;;;0.80;0.80;;;;;;;10.01;100.00;95785.63;5068097;28;20613;-73
2020/12/22 04:51:06;;;;;;;0.80;0.80;;;;;;;9.95;100.00;95787.13;5068839;28;20258;-78
2020/12/22 04:53:33;;;;;;;1.10;1.00;;;;;;;9.95;100.00;95784.56;5068667;28;20224;-75
2020/12/22 04:56:01;;;;;;;1.10;1.00;;;;;;;9.95;100.00;95782.00;5068004;28;20374;-75
2020/12/22 04:58:28;;;;;;;1.07;0.97;;;;;;;9.98;100.00;95770.56;5068061;28;20208;-74
2020/12/22 05:00:56;;;;;;;1.17;1.00;;;;;;;9.98;100.00;95788.56;5068764;28;20551;-73
2020/12/22 05:03:23;;;;;;;0.90;0.90;;;;;;;9.95;100.00;95776.84;5068163;28;20757;-72
2020/12/22 05:05:49;;;;;;;0.93;0.90;;;;;;;9.99;100.00;95779.88;5068051;28;20290;-75
2020/12/22 05:08:15;;;;;;;0.90;0.90;;;;;;;10.00;100.00;95784.88;5068526;28;20193;-75
2020/12/22 05:10:42;;;;;;;0.90;0.90;;;;;;;10.00;100.00;95796.94;5068357;28;20212;-74
2020/12/22 05:13:09;;;;;;;0.80;0.80;;;;;;;10.02;100.00;95808.63;5067901;28;20283;-75
2020/12/22 05:15:35;;;;;;;0.83;0.83;;;;;;;10.01;100.00;95808.78;5067783;28;20227;-77
2020/12/22 05:18:01;;;;;;;1.07;0.70;;;;;;;10.03;100.00;95809.44;5067987;28;20248;-75
2020/12/22 05:20:27;;;;;;;0.70;0.70;;;;;;;10.05;100.00;95808.28;5067799;28;20291;-78
2020/12/22 05:22:54;;;;;;;1.60;0.70;;;;;;;10.10;100.00;95807.00;5068022;28;20196;-73
2020/12/22 05:25:21;;;;;;;0.83;0.80;;;;;;;10.12;100.00;95811.00;5067991;28;20203;-74
2020/12/22 05:27:50;;;;;;;0.70;0.70;;;;;;;10.15;100.00;95815.81;5067854;28;20227;-74
2020/12/22 05:30:17;;;;;;;0.70;0.70;;;;;;;10.15;100.00;95807.31;5067904;28;20205;-77
2020/12/22 05:32:44;;;;;;;1.10;0.70;;;;;;;10.21;100.00;95792.00;5065927;28;20230;-74
2020/12/22 05:35:12;;;;;;;1.27;0.70;;;;;;;10.23;100.00;95786.69;5049494;28;20223;-74
2020/12/22 05:37:39;;;;;;;0.60;0.60;;;;;;;10.29;100.00;95797.13;5061635;28;20247;-72
2020/12/22 05:40:09;;;;;;;0.70;0.70;;;;;;;10.34;99.15;95789.69;5065937;28;20192;-74
2020/12/22 05:42:35;;;;;;;1.43;0.70;;;;;;;10.37;99.23;95793.72;5059510;28;20204;-74
2020/12/22 05:45:04;;;;;;;1.67;0.70;;;;;;;10.41;99.19;95794.94;5067632;28;20200;-77
2020/12/22 05:47:39;;;;;;;0.60;0.60;;;;;;;10.47;98.83;95790.91;5067701;28;20200;-74
2020/12/22 05:50:05;;;;;;;0.70;0.70;;;;;;;10.51;99.25;95784.44;5061512;28;20211;-74
2020/12/22 05:52:31;;;;;;;1.10;0.60;;;;;;;10.48;97.76;95787.38;5065383;28;20197;-75
2020/12/22 05:54:59;;;;;;;0.70;0.70;;;;;;;10.51;98.51;95798.13;5060929;28;20262;-73
2020/12/22 05:57:26;;;;;;;0.60;0.60;;;;;;;10.53;97.61;95791.03;5059726;28;20228;-73
2020/12/22 05:59:53;;;;;;;0.60;0.60;;;;;;;10.56;97.81;95800.19;5067312;28;20189;-74
2020/12/22 06:02:26;;;;;;;0.70;0.70;;;;;;;10.56;97.58;95795.03;5067170;28;20193;-74
2020/12/22 06:04:56;;;;;;;0.77;0.70;;;;;;;10.54;97.20;95802.94;5066996;28;20246;-74
2020/12/22 06:07:22;;;;;;;0.77;0.77;;;;;;;10.60;98.05;95812.53;5067035;28;20215;-74
2020/12/22 06:09:48;;;;;;;0.60;0.60;;;;;;;10.61;96.67;95803.03;5067187;28;20247;-72
2020/12/22 06:12:14;;;;;;;0.70;0.70;;;;;;;10.62;96.76;95805.44;5067306;28;20208;-72
2020/12/22 06:14:43;;;;;;;0.77;0.77;;;;;;;10.60;96.49;95799.66;5070032;28;20243;-75
2020/12/22 06:17:10;;;;;;;0.77;0.77;;;;;;;10.60;95.34;95794.50;5070100;28;20311;-74
2020/12/22 06:19:37;;;;;;;0.70;0.70;;;;;;;10.67;95.71;95808.31;5070897;28;20254;-74
2020/12/22 06:22:07;;;;;;;0.63;0.63;;;;;;;10.66;95.34;95811.06;5071026;28;20201;-73
2020/12/22 06:24:34;;;;;;;0.60;0.60;;;;;;;10.65;95.61;95787.09;5070070;28;20185;-73
2020/12/22 06:27:04;;;;;;;0.70;0.70;;;;;;;10.63;95.16;95791.59;5068980;28;20239;-74
2020/12/22 06:29:31;;;;;;;0.70;0.70;;;;;;;10.68;95.30;95786.75;5070308;28;20192;-77
2020/12/22 06:32:21;;;;;;;0.87;0.73;;;;;;;10.71;95.07;95788.19;5068500;28;20863;-74
2020/12/22 06:34:47;;;;;;;0.70;0.70;;;;;;;10.71;94.98;95786.41;5065889;28;20587;-74
2020/12/22 06:37:14;;;;;;;1.90;0.80;;;;;;;10.76;94.18;95785.09;5068972;28;20675;-78
2020/12/22 06:39:41;;;;;;;0.70;0.70;;;;;;;10.81;93.80;95781.00;5065913;28;20208;-77
2020/12/22 06:42:08;;;;;;;0.70;0.70;;;;;;;10.82;94.04;95781.81;5069499;28;20201;-72
2020/12/22 06:44:35;;;;;;;0.80;0.80;;;;;;;10.83;93.99;95780.84;5069202;28;20251;-74
2020/12/22 06:47:03;;;;;;;0.73;0.73;;;;;;;10.81;93.43;95777.63;5069531;28;20213;-78
2020/12/22 06:49:49;;;;;;;0.70;0.70;;;;;;;10.87;93.27;95780.31;5069329;28;20281;-74
2020/12/22 06:52:33;;;;;;;0.70;0.70;;;;;;;10.86;93.52;95781.28;5069512;28;20193;-74
2020/12/22 06:54:59;;;;;;;1.17;0.80;;;;;;;10.85;93.31;95787.41;5068707;28;20222;-76
2020/12/22 06:57:45;;;;;;;0.67;0.67;;;;;;;10.89;92.72;95780.16;5067530;28;21023;-77
2020/12/22 07:00:24;;;;;;;0.80;0.80;;;;;;;10.91;92.75;95779.00;5069050;28;20197;-77
2020/12/22 07:02:50;;;;;;;0.70;0.70;;;;;;;10.92;92.28;95788.34;5068371;28;20659;-75
2020/12/22 07:05:37;;;;;;;1.63;0.73;;;;;;;10.98;92.36;95792.78;5068239;28;20373;-74
2020/12/22 07:08:05;;;;;;;1.00;0.60;;;;;;;10.98;92.19;95786.81;5069537;28;20216;-75
2020/12/22 07:10:31;;;;;;;0.70;0.70;;;;;;;10.99;91.83;95796.16;5069500;28;20254;-79
2020/12/22 07:12:59;;;;;;;2.10;0.87;;;;;;;11.03;91.45;95800.78;5066721;28;20197;-77
2020/12/22 07:15:32;;;;;;;0.80;0.70;;;;;;;11.09;91.00;95801.88;5067062;28;20225;-74
2020/12/22 07:18:08;;;;;;;0.60;0.60;;;;;;;11.11;90.89;95807.66;5069147;28;20213;-78
2020/12/22 07:20:34;;;;;;;0.60;0.60;;;;;;;11.16;90.59;95812.31;5069597;28;20279;-75
2020/12/22 07:23:00;;;;;;;0.70;0.70;;;;;;;11.19;90.30;95811.94;5068491;28;20189;-74
2020/12/22 07:25:28;;;;;;;1.03;0.70;;;;;;;11.21;89.83;95812.56;5066633;28;20282;-76
2020/12/22 07:27:54;;;;;;;1.40;0.60;;;;;;;11.20;89.67;95805.81;5069358;28;20283;-77
2020/12/22 07:30:20;;;;;;;0.60;0.60;;;;;;;11.26;89.69;95811.06;5069105;28;20250;-77
2020/12/22 07:32:46;;;;;;;0.70;0.70;;;;;;;11.29;89.50;95812.50;5068770;28;20859;-74
2020/12/22 07:35:12;;;;;;;0.60;0.60;;;;;;;11.33;88.76;95822.31;5067302;28;20227;-74
2020/12/22 07:37:38;;;;;;;0.70;0.70;;;;;;;11.30;88.86;95820.06;5068996;28;20618;-74
2020/12/22 07:40:08;;;;;;;0.60;0.60;;;;;;;11.33;88.63;95813.75;5068833;28;20200;-78
2020/12/22 07:42:35;;;;;;;0.60;0.60;;;;;;;11.35;88.21;95816.97;5068678;28;20200;-77
2020/12/22 07:45:05;;;;;;;0.87;0.60;;;;;;;11.42;88.34;95813.50;5068618;28;20197;-73
2020/12/22 07:47:31;;;;;;;0.70;0.70;;;;;;;11.41;88.02;95806.75;5068037;28;20270;-74
2020/12/22 07:50:11;;;;;;;0.70;0.60;;;;;;;11.45;88.32;95819.28;5068699;28;20208;-78
2020/12/22 07:52:38;;;;;;;0.73;0.63;;;;;;;11.40;88.22;95812.88;5068524;28;20197;-74
2020/12/22 07:55:03;;;;;;;0.50;0.50;;;;;;;11.46;87.85;95820.88;5067395;28;20563;-77
2020/12/22 07:57:30;;;;;;;0.50;0.50;;;;;;;11.47;87.47;95818.13;5067509;28;20240;-75
2020/12/22 08:00:03;;;;;;;0.77;0.50;;;;;;;11.50;87.68;95830.69;5067899;28;20204;-80
2020/12/22 08:02:29;;;;;;;0.80;0.80;;;;;;;11.55;87.40;95828.34;5068045;28;20694;-75
2020/12/22 08:04:55;;;;;;;0.63;0.63;;;;;;;11.61;86.97;95830.22;5067307;28;20196;-74
2020/12/22 08:07:21;;;;;;;0.60;0.60;;;;;;;11.60;86.67;95814.94;5067872;28;20930;-74
2020/12/22 08:09:47;;;;;;;5.60;0.77;;;;;;;11.66;86.35;95822.78;5068232;28;20908;-73
2020/12/22 08:12:13;;;;;;;0.60;0.60;;;;;;;11.67;86.14;95833.91;5067439;28;20282;-74
2020/12/22 08:14:41;;;;;;;0.63;0.60;;;;;;;11.70;85.94;95831.75;5066967;28;20216;-75
2020/12/22 08:17:13;;;;;;;0.70;0.70;;;;;;;11.77;85.73;95835.25;5067113;28;20221;-78
2020/12/22 08:19:42;;;;;;;0.80;0.80;;;;;;;11.74;85.30;95830.41;5066045;28;20667;-78
2020/12/22 08:22:08;;;;;;;0.60;0.60;;;;;;;11.80;84.78;95825.56;5067199;28;20239;-74
2020/12/22 08:24:36;;;;;;;0.60;0.60;;;;;;;11.89;84.84;95838.22;5061480;28;20255;-77
2020/12/22 08:27:01;;;;;;;0.80;0.50;;;;;;;11.92;84.07;95824.97;5065451;28;20216;-77
2020/12/22 08:29:29;;;;;;;1.00;0.60;;;;;;;11.89;83.84;95827.88;5067298;28;20201;-78
2020/12/22 08:31:59;;;;;;;0.70;0.70;;;;;;;11.95;83.84;95836.66;5052071;28;20193;-77
2020/12/22 08:34:27;;;;;;;0.53;0.50;;;;;;;11.96;83.86;95836.50;5057334;28;20196;-76
2020/12/22 08:36:53;;;;;;;0.50;0.50;;;;;;;11.99;83.46;95828.41;5066152;28;20228;-77
2020/12/22 08:39:21;;;;;;;0.50;0.50;;;;;;;11.98;83.13;95834.53;5067083;28;20209;-76
2020/12/22 08:41:49;;;;;;;0.60;0.60;;;;;;;11.95;83.58;95834.91;5067315;28;20200;-74
2020/12/22 08:44:16;;;;;;;0.53;0.53;;;;;;;11.99;83.37;95838.72;5066378;28;20197;-74
2020/12/22 08:46:43;;;;;;;0.83;0.70;;;;;;;12.00;83.09;95850.66;5066753;28;20221;-74
2020/12/22 08:49:11;;;;;;;0.60;0.60;;;;;;;12.01;83.49;95847.09;5066575;28;20776;-77
2020/12/22 08:51:39;;;;;;;0.60;0.60;;;;;;;12.06;82.78;95852.53;5067060;28;20197;-75
2020/12/22 08:54:05;;;;;;;0.53;0.53;;;;;;;12.12;82.68;95848.44;5066319;28;20212;-76
2020/12/22 08:56:31;;;;;;;0.83;0.60;;;;;;;12.20;81.85;95856.06;5065967;28;20224;-75
2020/12/22 08:58:59;;;;;;;0.60;0.60;;;;;;;12.33;81.24;95863.16;5066863;28;20208;-74
2020/12/22 09:01:27;;;;;;;0.60;0.60;;;;;;;12.54;80.26;95863.22;5066712;28;20197;-77
2020/12/22 09:03:55;;;;;;;0.70;0.70;;;;;;;12.58;79.59;95866.25;5066053;28;20201;-77
2020/12/22 09:06:35;;;;;;;0.70;0.70;;;;;;;12.58;78.91;95869.63;5063118;28;21973;-74
2020/12/22 09:09:04;;;;;;;1.63;0.60;;;;;;;12.61;79.12;95869.28;5065799;28;20189;-77
2020/12/22 09:11:29;;;;;;;0.80;0.80;;;;;;;12.66;78.15;95854.03;5066380;28;20209;-76
2020/12/22 09:14:06;;;;;;;3.90;1.03;;;;;;;12.73;78.74;95864.41;5066101;28;20196;-78
2020/12/22 09:16:50;;;;;;;0.60;0.60;;;;;;;12.82;77.62;95859.97;5066521;28;20221;-77
2020/12/22 09:19:17;;;;;;;0.50;0.50;;;;;;;12.82;77.76;95844.44;5066507;28;20204;-77
2020/12/22 09:21:43;;;;;;;0.60;0.60;;;;;;;12.79;77.75;95858.53;5066642;28;20489;-77
2020/12/22 09:24:15;;;;;;;1.07;0.70;;;;;;;12.76;77.57;95862.28;5065936;28;20351;-74
2020/12/22 09:26:55;;;;;;;0.73;0.70;;;;;;;12.79;77.47;95868.88;5065798;28;20209;-73
2020/12/22 09:29:21;;;;;;;1.73;0.60;;;;;;;12.77;77.41;95866.47;5066376;28;20196;-75
2020/12/22 09:31:47;;;;;;;0.97;0.70;;;;;;;12.76;76.85;95871.81;5065853;28;20280;-72
2020/12/22 09:34:13;;;;;;;0.60;0.60;;;;;;;12.73;76.98;95860.06;5064695;28;20231;-72
2020/12/22 09:36:39;;;;;;;0.60;0.60;;;;;;;12.75;77.51;95873.59;5065991;28;20217;-74
2020/12/22 09:39:05;;;;;;;0.50;0.50;;;;;;;12.76;77.07;95870.03;5065839;28;20219;-78
2020/12/22 09:41:32;;;;;;;0.60;0.60;;;;;;;12.76;76.88;95857.09;5065645;28;20211;-76
2020/12/22 09:43:58;;;;;;;1.77;0.70;;;;;;;12.80;76.36;95884.19;5065167;28;20204;-73
2020/12/22 09:46:24;;;;;;;0.60;0.60;;;;;;;12.80;76.03;95870.47;5065627;28;20243;-73
2020/12/22 09:48:50;;;;;;;1.13;0.70;;;;;;;12.82;75.62;95875.47;5065123;28;20201;-77
2020/12/22 09:51:16;;;;;;;1.50;0.57;;;;;;;12.77;75.86;95865.66;5065154;28;20196;-77
2020/12/22 09:53:42;;;;;;;1.17;0.60;;;;;;;12.80;75.62;95866.09;5065025;28;20188;-77
2020/12/22 09:56:08;;;;;;;0.90;0.60;;;;;;;12.82;75.42;95881.44;5064879;28;20275;-77
2020/12/22 09:58:34;;;;;;;0.60;0.60;;;;;;;12.85;74.97;95865.56;5065857;28;20217;-77
2020/12/22 10:01:00;;;;;;;0.70;0.70;;;;;;;12.94;74.58;95876.56;5065621;28;20208;-78
2020/12/22 10:03:26;;;;;;;0.60;0.60;;;;;;;12.91;74.15;95858.84;5065192;28;20197;-77
2020/12/22 10:05:52;;;;;;;0.73;0.70;;;;;;;12.88;74.17;95869.56;5064907;28;20216;-77
2020/12/22 10:08:18;;;;;;;0.83;0.60;;;;;;;12.91;73.93;95856.25;5063801;28;20191;-73
2020/12/22 10:10:44;;;;;;;0.60;0.60;;;;;;;12.95;73.62;95870.41;5054077;28;20201;-78
2020/12/22 10:13:10;;;;;;;0.90;0.60;;;;;;;12.97;73.61;95871.03;5061914;28;20707;-77
2020/12/22 10:15:36;;;;;;;0.60;0.60;;;;;;;13.03;73.94;95867.72;5065195;28;20299;-78
2020/12/22 10:18:09;;;;;;;1.03;0.77;;;;;;;13.00;74.01;95870.66;5065114;28;20208;-74
2020/12/22 10:20:35;;;;;;;0.50;0.50;;;;;;;12.95;73.70;95862.66;5066632;28;20200;-77
2020/12/22 10:23:01;;;;;;;0.50;0.50;;;;;;;12.96;73.76;95867.66;5065464;28;20197;-77
2020/12/22 10:25:27;;;;;;;2.00;0.67;;;;;;;12.99;74.16;95869.88;5065245;28;20200;-78
2020/12/22 10:27:53;;;;;;;0.70;0.70;;;;;;;13.02;73.89;95879.84;5054352;28;20200;-78
2020/12/22 10:30:19;;;;;;;0.60;0.60;;;;;;;13.00;73.86;95871.47;5054112;28;20193;-78
2020/12/22 10:32:46;;;;;;;0.60;0.60;;;;;;;12.93;73.43;95883.53;5066063;28;20204;-77
2020/12/22 10:35:12;;;;;;;3.03;0.70;;;;;;;12.93;73.96;95882.72;5066047;28;20193;-74
2020/12/22 10:37:38;;;;;;;1.00;0.90;;;;;;;12.89;73.89;95877.13;5065728;28;20315;-74
2020/12/22 10:40:04;;;;;;;1.17;0.70;;;;;;;12.88;73.95;95878.13;5066197;28;20232;-74
2020/12/22 10:42:29;;;;;;;0.67;0.67;;;;;;;12.90;73.85;95878.72;5054794;28;20204;-77
2020/12/22 10:44:55;;;;;;;0.60;0.60;;;;;;;12.89;73.93;95889.25;5064408;28;20513;-77
2020/12/22 10:47:21;;;;;;;0.70;0.70;;;;;;;12.94;73.78;95895.47;5066051;28;20216;-79
2020/12/22 10:49:49;;;;;;;5.47;0.70;;;;;;;12.96;73.19;95888.31;5065698;28;20204;-77
2020/12/22 10:52:15;;;;;;;0.50;0.50;;;;;;;12.98;72.88;95876.03;5065873;28;20201;-76
2020/12/22 10:54:41;;;;;;;0.67;0.50;;;;;;;12.97;72.40;95878.78;5065018;28;20204;-80
2020/12/22 10:57:07;;;;;;;0.60;0.60;;;;;;;13.01;72.75;95875.66;5065935;28;20216;-75
2020/12/22 10:59:33;;;;;;;0.50;0.50;;;;;;;13.03;72.88;95889.19;5060979;28;20193;-74
2020/12/22 11:01:59;;;;;;;0.60;0.57;;;;;;;13.07;72.25;95893.03;5069267;28;20192;-78
2020/12/22 11:04:25;;;;;;;0.50;0.50;;;;;;;13.03;71.87;95871.09;5068396;28;20206;-77
2020/12/22 11:07:00;;;;;;;0.60;0.60;;;;;;;13.04;72.07;95880.47;5069091;28;20587;-75
2020/12/22 11:09:26;;;;;;;0.60;0.60;;;;;;;13.09;71.97;95866.97;5069103;28;20200;-75
2020/12/22 11:11:52;;;;;;;0.63;0.63;;;;;;;13.09;71.99;95870.34;5069321;28;20729;-76
2020/12/22 11:14:17;;;;;;;0.60;0.60;;;;;;;13.09;71.44;95866.97;5068958;28;20197;-74
2020/12/22 11:16:43;;;;;;;0.60;0.60;;;;;;;13.05;71.45;95882.06;5068981;28;20294;-75
2020/12/22 11:19:12;;;;;;;1.53;0.60;;;;;;;13.10;71.55;95881.50;5068779;28;20645;-77
2020/12/22 11:21:38;;;;;;;0.53;0.53;;;;;;;13.08;71.14;95873.91;5069788;28;20189;-75
2020/12/22 11:24:04;;;;;;;0.60;0.60;;;;;;;13.12;71.76;95872.56;5068676;28;20203;-74
2020/12/22 11:26:30;;;;;;;0.50;0.50;;;;;;;13.07;74.44;95867.19;5068435;28;20208;-74
2020/12/22 11:28:56;;;;;;;0.60;0.60;;;;;;;13.00;75.96;95871.47;5067821;28;20189;-74
2020/12/22 11:31:22;;;;;;;0.60;0.60;;;;;;;12.88;77.32;95870.38;5068639;28;20188;-77
2020/12/22 11:33:48;;;;;;;0.60;0.60;;;;;;;12.86;79.62;95867.16;5067434;28;20307;-75